Time;durP1;ratioP1;P1;durP2;ratioP2;P2;SDS_P1;SDS_P2;PMS_P1;PMS_P2;Temp;Humidity;BMP_temperature;BMP_pressure;BME280_temperature;BME280_humidity;BME280_pressure;Samples;Min_cycle;Max_cycle;Signal;HPM_P1;HPM_P2
2021/01/07 00:01:22;;;;;;;55.30;23.30;;;3.20;99.90;;;;;;4935542;29;20541;-91
2021/01/07 00:03:47;;;;;;;53.87;23.17;;;3.20;99.90;;;;;;4918564;29;20760;-93
2021/01/07 00:06:15;;;;;;;41.40;19.13;;;3.20;99.90;;;;;;4935296;29;20263;-92
2021/01/07 00:08:41;;;;;;;46.50;21.13;;;3.30;99.90;;;;;;4918495;29;20192;-93
2021/01/07 00:11:08;;;;;;;46.23;19.17;;;3.20;99.90;;;;;;4935641;29;20180;-92
2021/01/07 00:13:35;;;;;;;38.93;18.67;;;3.20;99.90;;;;;;4918982;29;20189;-92
2021/01/07 00:16:01;;;;;;;33.60;16.70;;;3.70;99.90;;;;;;4935517;29;20187;-92
2021/01/07 00:18:27;;;;;;;47.90;21.83;;;3.20;99.90;;;;;;4918692;29;20301;-92
2021/01/07 00:20:52;;;;;;;73.07;28.60;;;3.20;99.90;;;;;;4935611;29;20208;-92
2021/01/07 00:23:18;;;;;;;59.37;25.20;;;3.20;99.90;;;;;;4918544;29;20248;-92
2021/01/07 00:25:49;;;;;;;39.10;19.87;;;3.40;99.90;;;;;;4935704;29;20188;-93
2021/01/07 00:28:16;;;;;;;45.80;20.80;;;3.70;99.90;;;;;;4918570;29;20185;-92
2021/01/07 00:30:43;;;;;;;41.20;18.20;;;3.20;99.90;;;;;;4935561;29;20180;-93
2021/01/07 00:33:09;;;;;;;39.27;17.63;;;3.20;99.90;;;;;;4935623;29;20194;-92
2021/01/07 00:35:35;;;;;;;34.70;16.67;;;3.20;99.90;;;;;;4935129;29;20180;-92
2021/01/07 00:38:00;;;;;;;42.60;17.90;;;3.30;99.90;;;;;;4918674;29;20184;-92
2021/01/07 00:40:26;;;;;;;47.47;19.27;;;3.10;99.90;;;;;;4936534;29;20714;-91
2021/01/07 00:42:52;;;;;;;50.77;20.47;;;3.10;99.90;;;;;;4939145;29;20247;-92
2021/01/07 00:45:18;;;;;;;49.30;22.07;;;4.10;99.90;;;;;;4928302;29;20244;-92
2021/01/07 00:47:45;;;;;;;68.97;32.13;;;4.50;99.90;;;;;;4938105;29;20634;-91
2021/01/07 00:50:12;;;;;;;73.57;32.50;;;3.10;99.90;;;;;;4922172;29;20615;-92
2021/01/07 00:52:39;;;;;;;49.97;24.10;;;3.10;99.90;;;;;;4939737;29;20205;-92
2021/01/07 00:55:06;;;;;;;42.90;20.50;;;3.30;99.90;;;;;;4938848;29;20184;-92
2021/01/07 00:57:32;;;;;;;35.93;17.80;;;3.00;99.90;;;;;;4939142;29;20176;-92
2021/01/07 00:59:58;;;;;;;35.63;17.03;;;3.90;99.90;;;;;;4937869;29;20219;-93
2021/01/07 01:02:23;;;;;;;30.77;15.73;;;3.70;99.90;;;;;;4937576;29;20740;-93
2021/01/07 01:04:49;;;;;;;31.07;15.73;;;3.00;99.90;;;;;;4938862;29;20203;-92
2021/01/07 01:07:15;;;;;;;35.13;17.40;;;3.00;99.90;;;;;;4938685;29;20212;-92
2021/01/07 01:09:40;;;;;;;35.50;17.03;;;3.00;99.90;;;;;;4939112;29;20658;-93
2021/01/07 01:12:06;;;;;;;38.60;18.67;;;3.00;99.90;;;;;;4939020;29;20185;-92
2021/01/07 01:14:32;;;;;;;36.93;19.50;;;3.00;99.90;;;;;;4937683;29;20184;-92
2021/01/07 01:16:57;;;;;;;42.97;21.10;;;3.00;99.90;;;;;;4938989;29;20196;-92
2021/01/07 01:19:23;;;;;;;39.23;21.43;;;3.00;99.90;;;;;;4937283;29;20215;-92
2021/01/07 01:21:52;;;;;;;38.50;19.83;;;3.00;99.90;;;;;;4937505;29;20223;-92
2021/01/07 01:24:19;;;;;;;34.17;18.13;;;3.00;99.90;;;;;;4937203;29;20530;-93
2021/01/07 01:26:45;;;;;;;31.90;15.20;;;3.20;99.90;;;;;;4937489;29;20235;-93
2021/01/07 01:29:10;;;;;;;31.27;17.17;;;4.40;99.90;;;;;;4938727;29;20251;-93
2021/01/07 01:31:39;;;;;;;25.13;14.83;;;3.00;99.90;;;;;;4937074;29;20180;-92
2021/01/07 01:34:07;;;;;;;35.23;17.40;;;2.90;99.90;;;;;;4938538;29;20177;-92
2021/01/07 01:36:33;;;;;;;48.87;21.13;;;2.90;99.90;;;;;;4937265;29;20672;-92
2021/01/07 01:38:58;;;;;;;61.70;25.00;;;2.90;99.90;;;;;;4937046;29;20692;-93
2021/01/07 01:41:24;;;;;;;54.50;23.97;;;3.40;99.90;;;;;;4938103;29;20219;-93
2021/01/07 01:43:50;;;;;;;58.57;25.20;;;2.90;99.90;;;;;;4938252;29;20659;-91
2021/01/07 01:46:15;;;;;;;54.53;23.60;;;2.90;99.90;;;;;;4937767;29;20690;-91
2021/01/07 01:48:42;;;;;;;53.30;24.27;;;2.90;99.90;;;;;;4937623;29;20185;-91
2021/01/07 01:51:08;;;;;;;56.33;24.87;;;3.50;99.90;;;;;;4921245;29;20188;-92
2021/01/07 01:53:36;;;;;;;62.07;25.73;;;2.90;99.90;;;;;;4920341;29;20185;-93
2021/01/07 01:56:04;;;;;;;75.50;28.63;;;2.90;99.90;;;;;;4938134;29;20185;-92
2021/01/07 01:58:32;;;;;;;69.27;28.23;;;2.90;99.90;;;;;;4937644;29;20212;-92
2021/01/07 02:00:58;;;;;;;103.53;35.67;;;3.20;99.90;;;;;;4938418;29;20200;-92
2021/01/07 02:03:23;;;;;;;78.53;28.50;;;2.90;99.90;;;;;;4939033;29;20188;-93
2021/01/07 02:05:51;;;;;;;67.50;27.60;;;2.80;99.90;;;;;;4923190;29;20633;-93
2021/01/07 02:08:18;;;;;;;65.17;27.00;;;3.70;99.90;;;;;;4925480;29;20196;-90
2021/01/07 02:10:44;;;;;;;51.80;23.60;;;3.10;99.90;;;;;;4939742;29;20192;-93
2021/01/07 02:13:11;;;;;;;70.60;29.50;;;2.80;99.90;;;;;;4923474;29;20176;-92
2021/01/07 02:15:41;;;;;;;70.77;28.87;;;2.80;99.90;;;;;;4951577;29;20208;-89
2021/01/07 02:18:09;;;;;;;59.73;26.13;;;4.40;99.90;;;;;;4955922;29;20306;-91
2021/01/07 02:20:37;;;;;;;60.30;26.67;;;2.80;99.90;;;;;;4937839;29;20192;-93
2021/01/07 02:23:03;;;;;;;60.53;25.67;;;2.90;99.90;;;;;;4921142;29;20184;-93
2021/01/07 02:25:29;;;;;;;51.07;22.60;;;2.70;99.90;;;;;;4937443;29;20672;-93
2021/01/07 02:27:55;;;;;;;44.67;22.17;;;2.60;99.90;;;;;;4920550;29;20532;-93
2021/01/07 02:30:21;;;;;;;60.80;26.23;;;2.70;99.90;;;;;;4937370;29;20701;-90
2021/01/07 02:32:47;;;;;;;60.17;24.90;;;2.60;99.90;;;;;;4920381;29;20271;-93
2021/01/07 02:35:12;;;;;;;53.37;24.97;;;2.50;99.90;;;;;;4904610;29;20276;-93
2021/01/07 02:37:41;;;;;;;61.10;27.47;;;2.80;99.90;;;;;;4936883;29;20425;-93
2021/01/07 02:40:08;;;;;;;64.83;30.87;;;3.00;99.90;;;;;;4904614;29;20624;-93
2021/01/07 02:42:34;;;;;;;65.67;28.40;;;2.50;99.90;;;;;;4936983;29;20658;-93
2021/01/07 02:45:00;;;;;;;54.73;28.83;;;2.50;99.90;;;;;;4936978;29;20646;-92
2021/01/07 02:47:25;;;;;;;51.27;24.73;;;2.40;99.90;;;;;;4937441;29;20191;-94
2021/01/07 02:49:51;;;;;;;53.33;25.80;;;2.40;99.90;;;;;;4920615;29;20183;-93
2021/01/07 02:52:17;;;;;;;47.70;25.63;;;3.50;99.90;;;;;;4937253;29;20187;-92
2021/01/07 02:54:43;;;;;;;48.53;23.57;;;2.40;99.90;;;;;;4903883;29;20282;-92
2021/01/07 02:57:09;;;;;;;51.47;23.07;;;2.80;99.90;;;;;;4937069;29;20239;-92
2021/01/07 02:59:34;;;;;;;42.97;20.17;;;2.60;99.90;;;;;;4919706;29;20294;-92
2021/01/07 03:02:00;;;;;;;39.93;21.27;;;2.40;99.90;;;;;;4919935;29;20194;-91
2021/01/07 03:04:26;;;;;;;45.57;23.57;;;2.20;99.90;;;;;;4936362;29;20593;-91
2021/01/07 03:06:51;;;;;;;55.13;25.43;;;2.20;99.90;;;;;;4903935;29;20191;-92
2021/01/07 03:09:17;;;;;;;53.57;23.93;;;2.60;99.90;;;;;;4919661;29;20188;-93
2021/01/07 03:11:42;;;;;;;48.47;24.30;;;2.80;99.90;;;;;;4919523;29;20644;-92
2021/01/07 03:14:08;;;;;;;51.70;23.87;;;2.20;99.90;;;;;;4936471;29;20184;-92
2021/01/07 03:16:34;;;;;;;53.80;24.73;;;2.20;99.90;;;;;;4936417;29;20191;-93
2021/01/07 03:19:00;;;;;;;59.13;25.57;;;2.20;99.90;;;;;;4936868;29;20221;-93
2021/01/07 03:21:26;;;;;;;56.60;26.80;;;2.20;99.90;;;;;;4936648;29;20263;-92
2021/01/07 03:23:52;;;;;;;50.50;25.07;;;3.10;99.90;;;;;;4936783;29;20365;-94
2021/01/07 03:26:17;;;;;;;49.60;24.30;;;2.50;99.90;;;;;;4936795;29;20188;-93
2021/01/07 03:28:43;;;;;;;50.03;24.77;;;2.10;99.90;;;;;;4936475;29;20545;-93
2021/01/07 03:31:10;;;;;;;46.67;22.30;;;3.30;99.90;;;;;;4919609;29;20192;-92
2021/01/07 03:33:36;;;;;;;49.90;22.60;;;3.30;99.90;;;;;;4936411;29;20208;-92
2021/01/07 03:36:02;;;;;;;34.07;19.83;;;2.10;99.90;;;;;;4920058;29;20184;-93
2021/01/07 03:38:28;;;;;;;35.03;19.17;;;3.00;99.90;;;;;;4919368;29;20223;-94
2021/01/07 03:40:54;;;;;;;46.73;20.13;;;2.20;99.90;;;;;;4923068;29;20255;-90
2021/01/07 03:43:19;;;;;;;42.97;21.03;;;1.90;99.90;;;;;;4903375;29;20187;-93
2021/01/07 03:45:45;;;;;;;40.47;20.80;;;3.10;99.90;;;;;;4929743;29;20263;-94
2021/01/07 03:48:11;;;;;;;41.17;19.93;;;1.90;99.90;;;;;;4946465;29;20251;-92
2021/01/07 03:50:36;;;;;;;36.90;19.60;;;3.00;99.90;;;;;;4950918;29;20321;-92
2021/01/07 03:53:02;;;;;;;38.70;20.07;;;2.20;99.90;;;;;;4946483;29;20190;-92
2021/01/07 03:55:28;;;;;;;37.27;18.83;;;3.40;99.90;;;;;;4945593;29;20179;-93
2021/01/07 03:57:54;;;;;;;40.40;20.60;;;1.80;99.90;;;;;;4953674;29;20186;-92
2021/01/07 04:00:20;;;;;;;36.73;20.47;;;3.50;99.90;;;;;;4943611;29;20188;-92
2021/01/07 04:02:46;;;;;;;39.27;20.20;;;1.80;99.90;;;;;;4959614;29;20231;-89
2021/01/07 04:05:12;;;;;;;39.00;20.13;;;1.80;99.90;;;;;;4959476;29;20164;-92
2021/01/07 04:07:38;;;;;;;41.73;19.77;;;1.80;99.90;;;;;;4959704;29;20168;-91
2021/01/07 04:10:08;;;;;;;39.13;21.00;;;2.00;99.90;;;;;;4947468;29;20198;-92
2021/01/07 04:12:35;;;;;;;42.07;20.60;;;1.70;99.90;;;;;;4952082;29;20215;-91
2021/01/07 04:15:06;;;;;;;44.50;21.73;;;2.70;99.90;;;;;;4961203;29;20187;-92
2021/01/07 04:17:32;;;;;;;43.63;20.93;;;1.70;99.90;;;;;;4965504;29;20172;-90
2021/01/07 04:19:57;;;;;;;46.57;22.10;;;2.60;99.90;;;;;;4965360;29;20400;-91
2021/01/07 04:22:23;;;;;;;57.40;24.13;;;1.90;99.90;;;;;;4950492;29;20266;-92
2021/01/07 04:24:49;;;;;;;51.90;24.37;;;1.60;99.90;;;;;;4941594;29;20677;-92
2021/01/07 04:27:15;;;;;;;46.20;22.47;;;1.60;99.90;;;;;;4941915;29;20555;-91
2021/01/07 04:29:43;;;;;;;53.90;25.40;;;1.60;99.90;;;;;;4940911;29;20732;-92
2021/01/07 04:32:08;;;;;;;56.37;25.50;;;1.90;99.90;;;;;;4941082;29;20179;-91
2021/01/07 04:34:34;;;;;;;54.43;23.67;;;1.70;99.90;;;;;;4924972;29;20199;-91
2021/01/07 04:40:21;;;;;;;58.63;27.43;;;1.70;99.90;;;;;;5185867;23;20277;-91
2021/01/07 04:42:47;;;;;;;84.10;36.47;;;1.70;99.90;;;;;;4961624;29;20554;-91
2021/01/07 04:45:13;;;;;;;86.03;37.17;;;2.90;99.90;;;;;;4944231;29;20344;-92
2021/01/07 04:47:40;;;;;;;85.50;35.90;;;1.70;99.90;;;;;;4959774;28;20703;-91
2021/01/07 04:50:06;;;;;;;66.17;32.30;;;1.70;99.90;;;;;;4944281;29;20184;-91
2021/01/07 04:52:33;;;;;;;62.03;30.53;;;1.70;99.90;;;;;;4960944;28;20190;-94
2021/01/07 04:54:59;;;;;;;64.87;31.70;;;1.70;99.90;;;;;;4961386;28;20183;-95
2021/01/07 04:57:25;;;;;;;71.30;34.40;;;1.70;99.90;;;;;;4944790;29;20675;-96
2021/01/07 04:59:51;;;;;;;64.77;33.40;;;1.70;99.90;;;;;;4961024;28;20270;-92
2021/01/07 05:02:17;;;;;;;59.07;30.17;;;1.80;99.90;;;;;;4961073;29;20240;-92
2021/01/07 05:04:51;;;;;;;65.10;31.13;;;2.20;99.90;;;;;;4960827;29;20180;-92
2021/01/07 05:07:21;;;;;;;60.40;29.23;;;1.70;99.90;;;;;;4944044;29;20171;-92
2021/01/07 05:09:47;;;;;;;74.43;30.90;;;1.70;99.90;;;;;;4943416;29;20197;-93
2021/01/07 05:12:14;;;;;;;68.70;30.33;;;1.70;99.90;;;;;;4961193;29;20243;-91
2021/01/07 05:14:46;;;;;;;69.87;29.67;;;1.80;99.90;;;;;;4960853;28;20179;-92
2021/01/07 05:17:13;;;;;;;60.50;28.30;;;1.80;99.90;;;;;;4961175;29;20179;-92
2021/01/07 05:19:39;;;;;;;55.07;25.77;;;1.80;99.90;;;;;;4943531;29;20268;-92
2021/01/07 05:22:05;;;;;;;51.63;25.97;;;1.90;99.90;;;;;;4961281;29;20554;-92
2021/01/07 05:24:32;;;;;;;50.20;24.27;;;1.80;99.90;;;;;;4943911;29;20190;-92
2021/01/07 05:27:05;;;;;;;44.50;23.77;;;1.80;99.90;;;;;;4958265;28;20187;-92
2021/01/07 05:29:31;;;;;;;69.10;35.03;;;2.60;99.90;;;;;;4958192;29;20168;-91
2021/01/07 05:31:57;;;;;;;66.87;34.00;;;2.20;99.90;;;;;;4907782;29;20188;-93
2021/01/07 05:34:22;;;;;;;71.87;39.50;;;2.10;99.90;;;;;;4923157;29;20183;-94
2021/01/07 05:36:48;;;;;;;90.30;45.07;;;1.90;99.90;;;;;;4940109;29;20547;-92
2021/01/07 05:39:14;;;;;;;88.67;44.43;;;2.10;99.90;;;;;;4908838;29;20270;-93
2021/01/07 05:41:40;;;;;;;64.60;33.40;;;1.70;99.90;;;;;;4937707;29;20191;-93
2021/01/07 05:44:10;;;;;;;59.33;28.73;;;1.70;99.90;;;;;;4951758;28;20181;-93
2021/01/07 05:46:36;;;;;;;82.57;36.33;;;1.70;99.90;;;;;;4966433;28;20263;-93
2021/01/07 05:49:02;;;;;;;98.97;39.70;;;1.70;99.90;;;;;;4943279;29;20279;-94
2021/01/07 05:51:29;;;;;;;78.57;35.60;;;1.70;99.90;;;;;;4968428;28;20670;-92
2021/01/07 05:54:00;;;;;;;75.00;31.43;;;1.70;99.90;;;;;;4956808;28;20209;-94
2021/01/07 05:56:27;;;;;;;78.90;32.13;;;1.70;99.90;;;;;;4965875;28;20713;-94
2021/01/07 05:58:54;;;;;;;85.87;33.50;;;2.80;99.90;;;;;;4949036;29;20196;-95
2021/01/07 06:01:22;;;;;;;74.67;33.17;;;1.70;99.90;;;;;;4946630;28;20262;-95
2021/01/07 06:03:52;;;;;;;73.77;33.37;;;1.70;99.90;;;;;;4953470;29;20179;-95
2021/01/07 06:06:20;;;;;;;76.47;33.33;;;1.70;99.90;;;;;;4950849;28;20194;-91
2021/01/07 06:08:48;;;;;;;72.13;32.23;;;2.00;99.90;;;;;;4966422;28;20189;-92
2021/01/07 06:11:16;;;;;;;58.17;27.77;;;1.90;99.90;;;;;;4974669;28;20167;-92
2021/01/07 06:13:44;;;;;;;67.10;29.83;;;1.70;99.90;;;;;;4971542;28;20186;-94
2021/01/07 06:16:15;;;;;;;71.93;30.47;;;1.70;99.90;;;;;;4966364;28;20186;-94
2021/01/07 06:18:41;;;;;;;97.57;37.63;;;1.70;99.90;;;;;;4956275;29;20250;-94
2021/01/07 06:21:10;;;;;;;147.97;47.40;;;1.70;99.90;;;;;;4956384;29;20211;-96
2021/01/07 06:23:44;;;;;;;256.33;70.13;;;2.90;99.90;;;;;;4945768;29;20183;-95
2021/01/07 06:26:25;;;;;;;211.57;64.90;;;1.70;99.90;;;;;;4944118;29;20564;-93
2021/01/07 06:28:58;;;;;;;180.93;53.57;;;1.70;99.90;;;;;;4956832;29;20190;-92
2021/01/07 06:31:35;;;;;;;173.00;55.77;;;1.70;99.90;;;;;;4939689;29;20238;-90
2021/01/07 06:34:01;;;;;;;183.63;53.60;;;1.70;99.90;;;;;;4972417;28;20185;-94
2021/01/07 06:36:43;;;;;;;79.50;32.87;;;1.70;99.90;;;;;;4940675;29;20179;-93
2021/01/07 06:39:09;;;;;;;169.00;70.70;;;2.00;99.90;;;;;;4955559;28;20786;-93
2021/01/07 06:41:35;;;;;;;99.93;43.50;;;2.00;99.90;;;;;;4962384;28;20215;-96
2021/01/07 06:44:07;;;;;;;122.47;48.80;;;1.60;99.90;;;;;;4960255;28;20187;-93
2021/01/07 06:46:44;;;;;;;120.87;48.40;;;1.60;99.90;;;;;;4965860;28;20623;-93
2021/01/07 06:49:20;;;;;;;131.17;63.80;;;1.60;99.90;;;;;;4978199;28;20204;-92
2021/01/07 06:51:50;;;;;;;120.53;60.00;;;1.80;99.90;;;;;;4962832;28;20522;-92
2021/01/07 06:54:17;;;;;;;93.50;45.87;;;1.60;99.90;;;;;;4964584;28;20645;-92
2021/01/07 06:56:44;;;;;;;92.57;43.77;;;3.50;99.90;;;;;;4966524;28;20206;-95
2021/01/07 06:59:13;;;;;;;95.70;45.87;;;1.70;99.90;;;;;;4966547;28;20214;-90
2021/01/07 07:01:46;;;;;;;83.40;42.53;;;1.70;99.90;;;;;;4966453;28;20225;-95
2021/01/07 07:04:29;;;;;;;53.37;26.83;;;1.70;99.90;;;;;;4978532;28;20175;-93
2021/01/07 07:07:16;;;;;;;46.40;24.70;;;1.70;99.90;;;;;;4968771;28;20274;-95
2021/01/07 07:09:44;;;;;;;80.63;32.80;;;1.70;99.90;;;;;;4980052;28;20547;-95
2021/01/07 07:12:29;;;;;;;100.57;42.13;;;2.30;99.90;;;;;;4972471;28;20186;-93
2021/01/07 07:14:57;;;;;;;65.60;32.47;;;1.70;99.90;;;;;;4954183;29;20181;-94
2021/01/07 07:17:23;;;;;;;62.33;28.93;;;1.70;99.90;;;;;;4940269;29;20689;-95
2021/01/07 07:19:49;;;;;;;44.40;24.57;;;2.90;99.90;;;;;;4938307;29;20207;-95
2021/01/07 07:22:19;;;;;;;40.57;22.37;;;1.70;99.90;;;;;;4967660;28;20193;-96
2021/01/07 07:24:50;;;;;;;54.73;22.67;;;2.20;99.90;;;;;;4960786;28;20273;-96
2021/01/07 07:27:18;;;;;;;43.47;22.80;;;1.70;99.90;;;;;;4975399;28;20179;-95
2021/01/07 07:29:45;;;;;;;44.17;21.57;;;1.70;99.90;;;;;;4976464;28;20333;-94
2021/01/07 07:32:24;;;;;;;42.63;22.53;;;2.40;99.90;;;;;;4975635;28;20170;-96
2021/01/07 07:34:51;;;;;;;46.57;22.27;;;1.70;99.90;;;;;;4989873;28;20169;-91
2021/01/07 07:37:22;;;;;;;44.97;22.33;;;3.20;99.90;;;;;;4994933;28;20273;-94
2021/01/07 07:39:49;;;;;;;43.57;23.17;;;1.70;99.90;;;;;;4993549;28;20234;-93
2021/01/07 07:42:16;;;;;;;52.90;25.07;;;1.70;99.90;;;;;;4980248;28;20166;-92
2021/01/07 07:44:41;;;;;;;53.60;25.37;;;2.80;99.90;;;;;;4982871;28;20178;-89
2021/01/07 07:47:07;;;;;;;52.13;23.67;;;2.80;99.90;;;;;;4982384;28;20210;-88
2021/01/07 07:49:33;;;;;;;49.00;24.83;;;1.70;99.90;;;;;;5030660;23;20243;-93
2021/01/07 07:51:58;;;;;;;56.67;26.00;;;1.70;99.90;;;;;;4951383;29;20203;-94
2021/01/07 07:54:24;;;;;;;56.37;26.20;;;1.70;99.90;;;;;;4947825;29;20225;-93
2021/01/07 07:57:00;;;;;;;49.23;26.10;;;2.70;99.90;;;;;;4930359;29;20535;-91
2021/01/07 07:59:26;;;;;;;57.30;27.40;;;2.70;99.90;;;;;;4943384;29;20207;-92
2021/01/07 08:01:55;;;;;;;63.07;33.93;;;1.80;99.90;;;;;;4937325;29;20179;-94
2021/01/07 08:04:26;;;;;;;79.77;39.83;;;1.80;99.90;;;;;;4954686;29;20178;-93
2021/01/07 08:06:52;;;;;;;211.87;60.27;;;1.80;99.90;;;;;;4969684;28;20159;-94
2021/01/07 08:09:21;;;;;;;120.63;43.70;;;1.80;99.90;;;;;;4958070;28;20263;-92
2021/01/07 08:11:52;;;;;;;86.00;37.17;;;1.80;99.90;;;;;;4929336;29;20185;-93
2021/01/07 08:14:20;;;;;;;76.90;33.50;;;1.80;99.90;;;;;;4949086;29;20179;-92
2021/01/07 08:16:46;;;;;;;104.93;38.53;;;2.00;99.90;;;;;;4956569;28;20180;-96
2021/01/07 08:19:17;;;;;;;116.53;40.37;;;1.80;99.90;;;;;;4946824;29;20200;-92
2021/01/07 08:21:47;;;;;;;100.73;35.80;;;3.30;99.90;;;;;;4947655;29;20186;-95
2021/01/07 08:24:13;;;;;;;93.13;36.20;;;2.80;99.90;;;;;;4962796;29;20191;-94
2021/01/07 08:26:42;;;;;;;92.53;34.97;;;2.00;99.90;;;;;;4960419;28;20195;-96
2021/01/07 08:29:09;;;;;;;99.17;38.43;;;2.00;99.90;;;;;;4955063;28;20194;-95
2021/01/07 08:31:38;;;;;;;72.87;31.33;;;3.40;99.90;;;;;;4952104;29;20172;-94
2021/01/07 08:34:04;;;;;;;102.67;36.80;;;2.10;99.90;;;;;;4958556;28;20206;-96
2021/01/07 08:36:33;;;;;;;111.17;35.70;;;2.10;99.90;;;;;;4976986;28;20179;-96
2021/01/07 08:38:59;;;;;;;60.03;26.67;;;2.10;99.90;;;;;;4946748;29;20222;-96
2021/01/07 08:41:30;;;;;;;57.40;24.83;;;2.10;99.90;;;;;;4962611;28;20660;-94
2021/01/07 08:43:57;;;;;;;55.97;26.13;;;2.20;99.90;;;;;;4954186;29;20202;-96
2021/01/07 08:46:25;;;;;;;54.20;26.93;;;3.20;99.90;;;;;;4932469;29;20192;-94
2021/01/07 08:49:01;;;;;;;56.53;26.97;;;3.60;99.90;;;;;;4956472;28;20226;-95
2021/01/07 08:51:37;;;;;;;53.43;27.50;;;2.20;99.90;;;;;;4935549;29;20183;-94
2021/01/07 08:54:10;;;;;;;72.10;33.37;;;2.20;99.90;;;;;;4966423;29;20202;-93
2021/01/07 08:56:40;;;;;;;61.47;30.27;;;2.30;99.90;;;;;;4948647;29;20184;-96
2021/01/07 08:59:21;;;;;;;55.63;25.13;;;2.30;99.90;;;;;;4941629;29;20212;-95
2021/01/07 09:01:49;;;;;;;49.33;24.30;;;2.30;99.90;;;;;;4955088;29;20572;-96
2021/01/07 09:04:22;;;;;;;51.33;24.57;;;3.50;99.90;;;;;;4953375;29;20191;-96
2021/01/07 09:06:59;;;;;;;51.77;24.23;;;2.40;99.90;;;;;;4952235;29;20194;-96
2021/01/07 09:09:37;;;;;;;44.00;23.47;;;2.50;99.90;;;;;;5165021;23;20243;-96
2021/01/07 09:12:12;;;;;;;44.47;23.00;;;3.40;99.90;;;;;;5176900;23;20226;-92
2021/01/07 09:14:58;;;;;;;49.93;25.17;;;2.10;99.90;;;;;;4990493;28;20193;-94
2021/01/07 09:17:44;;;;;;;47.93;23.37;;;2.40;99.90;;;;;;4973171;28;20206;-95
2021/01/07 09:20:16;;;;;;;49.83;26.07;;;1.40;99.90;;;;;;4969675;28;20230;-91
2021/01/07 09:22:43;;;;;;;57.83;26.83;;;2.50;99.90;;;;;;4984053;28;20184;-92
2021/01/07 09:25:17;;;;;;;57.97;25.07;;;2.60;99.90;;;;;;4970465;28;20282;-96
2021/01/07 09:27:42;;;;;;;66.60;30.10;;;2.40;99.90;;;;;;4975477;28;20266;-92
2021/01/07 09:30:09;;;;;;;62.73;29.13;;;2.40;99.90;;;;;;4976087;28;20215;-95
2021/01/07 09:32:35;;;;;;;58.37;29.20;;;2.50;99.90;;;;;;4963296;29;20175;-96
2021/01/07 09:35:00;;;;;;;59.47;28.57;;;0.90;99.90;;;;;;4966000;28;20318;-96
2021/01/07 09:37:26;;;;;;;63.80;31.80;;;2.60;99.90;;;;;;4977013;28;20633;-96
2021/01/07 09:39:54;;;;;;;65.90;31.47;;;2.60;99.90;;;;;;4978635;28;20239;-95
2021/01/07 09:42:22;;;;;;;51.10;25.83;;;1.10;99.90;;;;;;4965540;28;20186;-89
2021/01/07 09:44:51;;;;;;;48.37;26.17;;;2.50;99.90;;;;;;4968038;28;20179;-96
2021/01/07 09:47:17;;;;;;;49.43;25.63;;;2.90;99.90;;;;;;4973141;28;20184;-96
2021/01/07 09:49:43;;;;;;;51.50;27.80;;;2.90;99.90;;;;;;4973626;28;20195;-96
2021/01/07 09:52:09;;;;;;;48.30;27.13;;;4.90;99.90;;;;;;4971080;28;20184;-95
2021/01/07 09:54:37;;;;;;;55.90;25.63;;;4.60;99.90;;;;;;4979161;28;20179;-94
2021/01/07 09:57:04;;;;;;;49.47;26.27;;;4.20;99.90;;;;;;4973926;28;20177;-96
2021/01/07 09:59:30;;;;;;;76.33;35.70;;;3.20;99.90;;;;;;4963734;28;20202;-96
2021/01/07 10:02:00;;;;;;;48.60;24.87;;;4.60;99.90;;;;;;4974752;28;20188;-95
2021/01/07 10:04:29;;;;;;;40.40;21.03;;;3.00;99.90;;;;;;4974697;28;20180;-91
2021/01/07 10:06:58;;;;;;;43.17;22.33;;;3.50;99.90;;;;;;4975860;28;20644;-96
2021/01/07 10:09:26;;;;;;;44.33;21.10;;;2.60;99.90;;;;;;5166129;23;20247;-86
2021/01/07 10:11:54;;;;;;;35.83;19.33;;;4.50;99.90;;;;;;5010111;23;20197;-89
2021/01/07 10:17:05;;;;;;;34.27;17.57;;;2.70;99.90;;;;;;5205305;23;20269;-91
2021/01/07 10:19:33;;;;;;;38.97;20.63;;;3.90;99.90;;;;;;5188424;23;20218;-89
2021/01/07 10:22:13;;;;;;;34.70;19.20;;;3.40;99.90;;;;;;5027321;23;20242;-88
2021/01/07 10:24:59;;;;;;;39.27;19.80;;;3.30;99.90;;;;;;5177769;23;20239;-89
2021/01/07 10:27:30;;;;;;;37.80;19.70;;;4.60;99.90;;;;;;5011089;23;20290;-93
2021/01/07 10:30:02;;;;;;;44.07;21.83;;;2.90;99.90;;;;;;5158518;23;20643;-90
2021/01/07 10:40:33;;;;;;;62.87;34.90;;;2.70;99.90;;;;;;4961505;29;20211;-91
2021/01/07 10:45:35;;;;;;;98.10;51.73;;;2.70;99.90;;;;;;5087727;23;20223;-95
2021/01/07 10:48:08;;;;;;;80.80;46.87;;;5.50;99.90;;;;;;4973986;28;20256;-94
2021/01/07 10:50:36;;;;;;;58.33;30.97;;;2.90;99.90;;;;;;4969417;29;20200;-95
2021/01/07 10:53:29;;;;;;;60.80;34.13;;;3.70;99.90;;;;;;4950603;29;20185;-95
2021/01/07 10:56:25;;;;;;;61.40;31.43;;;2.80;99.90;;;;;;4976568;28;20188;-94
2021/01/07 10:59:15;;;;;;;48.03;25.33;;;1.90;99.90;;;;;;4978728;28;20227;-93
2021/01/07 11:01:50;;;;;;;52.47;27.47;;;1.90;99.90;;;;;;4946731;28;20179;-95
2021/01/07 11:04:25;;;;;;;50.70;27.10;;;3.20;99.90;;;;;;4983459;28;20189;-95
2021/01/07 11:07:10;;;;;;;46.50;26.17;;;3.50;99.90;;;;;;4961118;29;20280;-94
2021/01/07 11:09:54;;;;;;;47.83;25.10;;;3.00;99.90;;;;;;4961730;28;20184;-96
2021/01/07 11:12:30;;;;;;;47.93;25.37;;;4.50;99.90;;;;;;4958179;28;20186;-94
2021/01/07 11:15:03;;;;;;;54.43;27.37;;;2.90;99.90;;;;;;4954415;29;20179;-93
2021/01/07 11:17:35;;;;;;;50.93;25.00;;;2.30;99.90;;;;;;4952914;29;20232;-95
2021/01/07 11:20:04;;;;;;;48.97;27.23;;;3.00;99.90;;;;;;4943154;28;20209;-95
2021/01/07 11:22:33;;;;;;;52.27;25.70;;;2.80;99.90;;;;;;4950702;28;20193;-93
2021/01/07 11:25:01;;;;;;;48.53;23.77;;;3.20;99.90;;;;;;4949320;29;20188;-93
2021/01/07 11:27:29;;;;;;;47.20;24.20;;;3.10;99.90;;;;;;5110402;23;20246;-95
2021/01/07 11:29:55;;;;;;;46.00;21.87;;;3.10;99.90;;;;;;5033155;23;20247;-94
2021/01/07 11:32:22;;;;;;;47.23;24.03;;;3.10;99.90;;;;;;4960644;28;20189;-91
2021/01/07 11:34:48;;;;;;;51.87;25.57;;;3.30;99.90;;;;;;4963671;28;20212;-96
2021/01/07 11:37:30;;;;;;;47.10;24.63;;;3.00;99.90;;;;;;4975373;28;20201;-95
2021/01/07 11:40:02;;;;;;;50.20;25.77;;;3.00;99.90;;;;;;4982556;28;20263;-94
2021/01/07 11:42:37;;;;;;;41.47;23.90;;;3.00;99.90;;;;;;4986484;28;20274;-93
2021/01/07 11:45:18;;;;;;;48.33;24.77;;;3.00;99.90;;;;;;4971654;28;20268;-95
2021/01/07 11:47:52;;;;;;;47.10;24.37;;;3.00;99.90;;;;;;4986391;28;20183;-93
2021/01/07 11:50:19;;;;;;;45.50;23.73;;;2.90;99.90;;;;;;4973072;28;20179;-96
2021/01/07 11:52:45;;;;;;;52.53;26.70;;;4.20;99.90;;;;;;4957782;29;20728;-94
2021/01/07 11:55:12;;;;;;;47.80;24.00;;;2.90;99.90;;;;;;4963551;28;20209;-94
2021/01/07 11:57:40;;;;;;;49.07;25.10;;;2.90;99.90;;;;;;4967467;28;20266;-93
2021/01/07 12:00:11;;;;;;;51.63;25.80;;;2.80;99.90;;;;;;4970555;28;20218;-92
2021/01/07 12:02:44;;;;;;;54.47;26.40;;;2.70;99.90;;;;;;4963498;28;20180;-91
2021/01/07 12:05:12;;;;;;;55.27;27.27;;;2.70;99.90;;;;;;4965577;28;20214;-95
2021/01/07 12:07:50;;;;;;;57.70;27.43;;;2.70;99.90;;;;;;4949379;28;20274;-91
2021/01/07 12:10:18;;;;;;;58.93;25.87;;;2.60;99.90;;;;;;4960551;28;20318;-94
2021/01/07 12:13:07;;;;;;;58.00;26.73;;;2.60;99.90;;;;;;4957980;28;20595;-92
2021/01/07 12:15:34;;;;;;;61.23;26.80;;;2.50;99.90;;;;;;4933043;28;20197;-95
2021/01/07 12:18:01;;;;;;;58.83;28.67;;;2.60;99.90;;;;;;4954506;28;20183;-93
2021/01/07 12:20:28;;;;;;;60.47;28.87;;;3.20;99.90;;;;;;4966432;28;20223;-93
2021/01/07 12:22:55;;;;;;;69.57;30.27;;;2.60;99.90;;;;;;4963214;28;20191;-95
2021/01/07 12:25:21;;;;;;;65.13;29.53;;;3.00;99.90;;;;;;4965594;28;20194;-94
2021/01/07 12:27:47;;;;;;;55.30;25.07;;;2.80;99.90;;;;;;4963257;28;20656;-93
2021/01/07 12:30:18;;;;;;;63.30;26.07;;;4.10;99.90;;;;;;4967086;28;20242;-94
2021/01/07 12:33:08;;;;;;;62.87;28.27;;;2.70;99.90;;;;;;4966090;28;20194;-92
2021/01/07 12:35:36;;;;;;;59.87;26.47;;;2.80;99.90;;;;;;4982323;28;20178;-94
2021/01/07 12:38:07;;;;;;;65.90;27.63;;;2.80;99.90;;;;;;4968371;28;20257;-88
2021/01/07 12:40:42;;;;;;;64.10;30.33;;;2.80;99.90;;;;;;4968139;28;20207;-91
2021/01/07 12:43:15;;;;;;;59.67;27.00;;;2.80;99.90;;;;;;4959579;28;20181;-93
2021/01/07 12:45:45;;;;;;;64.40;33.17;;;2.80;99.90;;;;;;4969993;28;20179;-93
2021/01/07 12:48:11;;;;;;;57.27;26.83;;;2.80;99.90;;;;;;4962378;28;20617;-93
2021/01/07 12:50:37;;;;;;;60.27;27.20;;;2.70;99.90;;;;;;4969356;28;20201;-93
2021/01/07 12:53:03;;;;;;;61.47;26.97;;;3.60;99.90;;;;;;4940441;28;20184;-92
2021/01/07 12:55:32;;;;;;;54.30;26.03;;;3.10;99.90;;;;;;4968594;28;20172;-94
2021/01/07 12:58:38;;;;;;;61.93;26.23;;;2.80;99.90;;;;;;4976281;28;20181;-94
2021/01/07 13:01:14;;;;;;;59.67;25.53;;;2.80;99.90;;;;;;4894662;29;20203;-88